createdAt,value
2022-09-28T00:00:47.862Z,10.00
2022-09-28T00:03:14.754Z,10.00
2022-09-28T00:05:41.562Z,10.00
2022-09-28T00:08:08.390Z,10.00
2022-09-28T00:10:35.168Z,10.00
2022-09-28T00:13:02.774Z,10.00
2022-09-28T00:15:29.559Z,9.90
2022-09-28T00:17:56.361Z,9.90
2022-09-28T00:20:23.192Z,9.90
2022-09-28T00:22:50.150Z,9.90
2022-09-28T00:25:17.071Z,9.90
2022-09-28T00:27:49.191Z,9.90
2022-09-28T00:30:16.457Z,9.90
2022-09-28T00:32:43.583Z,9.90
2022-09-28T00:35:10.924Z,9.90
2022-09-28T00:37:38.120Z,9.90
2022-09-28T00:40:05.506Z,9.90
2022-09-28T00:42:32.310Z,9.90
2022-09-28T00:44:59.742Z,9.90
2022-09-28T00:47:35.439Z,9.90
2022-09-28T00:50:10.835Z,9.90
2022-09-28T00:52:47.939Z,10.00
2022-09-28T00:55:21.912Z,9.90
2022-09-28T00:57:53.200Z,9.90
2022-09-28T01:00:20.023Z,9.90
2022-09-28T01:02:48.003Z,10.00
2022-09-28T01:05:16.096Z,10.00
2022-09-28T01:07:46.432Z,10.00
2022-09-28T01:10:14.194Z,10.00
2022-09-28T01:12:41.160Z,10.00
2022-09-28T01:15:08.480Z,10.00
2022-09-28T01:18:05.472Z,10.00
2022-09-28T01:21:01.056Z,10.00
2022-09-28T01:23:30.852Z,10.00
2022-09-28T01:26:15.753Z,10.00
2022-09-28T01:28:44.394Z,9.90
2022-09-28T01:31:16.161Z,10.00
2022-09-28T01:33:48.778Z,10.00
2022-09-28T01:36:21.856Z,10.00
2022-09-28T01:39:13.118Z,10.00
2022-09-28T01:41:42.423Z,9.90
2022-09-28T01:44:14.380Z,10.00
2022-09-28T01:46:44.825Z,10.10
2022-09-28T01:49:19.843Z,10.00
2022-09-28T01:52:25.021Z,10.00
2022-09-28T01:55:11.001Z,10.00
2022-09-28T01:57:46.659Z,10.00
2022-09-28T02:00:16.234Z,9.90
2022-09-28T02:02:59.699Z,9.90
2022-09-28T02:05:29.632Z,9.90
2022-09-28T02:08:04.689Z,9.90
2022-09-28T02:10:43.701Z,9.90
2022-09-28T02:13:18.213Z,9.90
2022-09-28T02:15:54.288Z,9.90
2022-09-28T02:18:21.143Z,9.90
2022-09-28T02:20:59.645Z,9.80
2022-09-28T02:23:29.030Z,9.80
2022-09-28T02:26:04.006Z,9.80
2022-09-28T02:28:30.896Z,9.80
2022-09-28T02:30:57.777Z,9.80
2022-09-28T02:33:36.208Z,9.70
2022-09-28T02:36:03.671Z,9.70
2022-09-28T02:38:33.706Z,9.70
2022-09-28T02:41:05.523Z,9.80
2022-09-28T02:44:02.599Z,9.70
2022-09-28T02:46:58.563Z,9.70
2022-09-28T02:50:01.106Z,9.70
2022-09-28T02:53:20.378Z,9.70
2022-09-28T02:56:25.965Z,9.70
2022-09-28T02:59:01.691Z,9.70
2022-09-28T03:01:46.448Z,9.80
2022-09-28T03:04:42.373Z,9.70
2022-09-28T03:07:23.759Z,9.70
2022-09-28T03:10:09.206Z,9.70
2022-09-28T03:12:37.794Z,9.70
2022-09-28T03:15:30.030Z,9.70
2022-09-28T03:17:57.734Z,9.70
2022-09-28T03:20:26.137Z,9.70
2022-09-28T03:23:19.626Z,9.80
2022-09-28T03:25:40.026Z,9.70
2022-09-28T03:28:06.780Z,9.60
2022-09-28T03:30:33.866Z,9.70
2022-09-28T03:33:02.481Z,9.70
2022-09-28T03:35:29.331Z,9.60
2022-09-28T03:37:56.959Z,9.60
2022-09-28T03:40:24.507Z,9.70
2022-09-28T03:42:51.335Z,9.60
2022-09-28T03:45:18.092Z,9.60
2022-09-28T03:47:48.678Z,9.60
2022-09-28T03:50:16.211Z,9.60
2022-09-28T03:52:43.059Z,9.60
2022-09-28T03:55:09.938Z,9.60
2022-09-28T03:57:37.144Z,9.60
2022-09-28T04:00:05.871Z,9.60
2022-09-28T04:02:34.630Z,9.60
2022-09-28T04:05:02.181Z,9.70
2022-09-28T04:07:31.095Z,9.60
2022-09-28T04:09:58.264Z,9.60
2022-09-28T04:12:25.104Z,9.60
2022-09-28T04:14:51.954Z,9.50
2022-09-28T04:17:19.019Z,9.50
2022-09-28T04:19:46.382Z,9.60
2022-09-28T04:22:14.264Z,9.50
2022-09-28T04:24:43.476Z,9.50
2022-09-28T04:27:28.717Z,9.60
2022-09-28T04:29:55.524Z,9.50
2022-09-28T04:32:22.409Z,9.50
2022-09-28T04:34:49.279Z,9.50
2022-09-28T04:37:16.064Z,9.60
2022-09-28T04:39:47.484Z,9.50
2022-09-28T04:42:15.871Z,9.50
2022-09-28T04:44:42.792Z,9.50
2022-09-28T04:47:09.670Z,9.50
2022-09-28T04:49:38.379Z,9.50
2022-09-28T04:52:06.104Z,9.40
2022-09-28T04:54:33.012Z,9.40
2022-09-28T04:56:59.820Z,9.50
2022-09-28T04:59:26.739Z,9.40
2022-09-28T05:01:54.203Z,9.50
2022-09-28T05:04:25.646Z,9.50
2022-09-28T05:06:52.890Z,9.50
2022-09-28T05:09:19.866Z,9.50
2022-09-28T05:11:48.769Z,9.50
2022-09-28T05:14:16.366Z,9.50
2022-09-28T05:16:44.386Z,9.50
2022-09-28T05:19:12.351Z,9.50
2022-09-28T05:21:39.236Z,9.50
2022-09-28T05:24:07.676Z,9.50
2022-09-28T05:26:34.875Z,9.60
2022-09-28T05:29:01.859Z,9.50
2022-09-28T05:31:28.778Z,9.50
2022-09-28T05:33:55.675Z,9.50
2022-09-28T05:36:22.484Z,9.50
2022-09-28T05:38:49.313Z,9.50
2022-09-28T05:41:16.155Z,9.50
2022-09-28T05:43:44.109Z,9.50
2022-09-28T05:46:11.038Z,9.40
2022-09-28T05:48:38.059Z,9.50
2022-09-28T05:51:04.942Z,9.50
2022-09-28T05:53:31.799Z,9.50
2022-09-28T05:55:59.462Z,9.50
2022-09-28T05:58:27.357Z,9.50
2022-09-28T06:00:57.783Z,9.40
2022-09-28T06:03:25.264Z,9.50
2022-09-28T06:05:52.117Z,9.50
2022-09-28T06:08:19.462Z,9.50
2022-09-28T06:10:46.408Z,9.50
2022-09-28T06:13:13.231Z,9.50
2022-09-28T06:15:42.687Z,9.50
2022-09-28T06:18:14.154Z,9.60
2022-09-28T06:20:41.745Z,9.60
2022-09-28T06:23:13.192Z,9.60
2022-09-28T06:25:40.461Z,9.50
2022-09-28T06:28:10.885Z,9.50
2022-09-28T06:30:38.999Z,9.50
2022-09-28T06:33:08.309Z,9.60
2022-09-28T06:35:35.697Z,9.60
2022-09-28T06:38:02.963Z,9.70
2022-09-28T06:40:30.235Z,9.60
2022-09-28T06:43:02.849Z,9.60
2022-09-28T06:45:30.521Z,9.60
2022-09-28T06:48:01.217Z,9.70
2022-09-28T06:50:32.274Z,9.70
2022-09-28T06:53:00.199Z,9.60
2022-09-28T06:55:27.790Z,9.60
2022-09-28T06:58:06.098Z,9.50
2022-09-28T07:00:35.280Z,9.60
2022-09-28T07:03:03.972Z,9.60
2022-09-28T07:05:34.876Z,9.70
2022-09-28T07:08:02.279Z,9.70
2022-09-28T07:10:30.785Z,9.60
2022-09-28T07:13:02.532Z,9.60
2022-09-28T07:15:29.850Z,9.60
2022-09-28T07:18:02.538Z,9.60
2022-09-28T07:20:30.859Z,9.60
2022-09-28T07:23:15.840Z,9.70
2022-09-28T07:25:49.578Z,9.80
2022-09-28T07:28:17.450Z,9.80
2022-09-28T07:30:44.703Z,9.90
2022-09-28T07:33:14.484Z,9.90
2022-09-28T07:35:42.417Z,9.90
2022-09-28T07:38:10.890Z,9.90
2022-09-28T07:40:56.266Z,9.90
2022-09-28T07:43:23.220Z,10.00
2022-09-28T07:45:52.537Z,10.00
2022-09-28T07:48:20.384Z,10.10
2022-09-28T07:50:56.621Z,10.10
2022-09-28T07:53:25.136Z,10.10
2022-09-28T07:56:02.086Z,10.10
2022-09-28T07:58:29.353Z,10.10
2022-09-28T08:00:56.232Z,10.20
2022-09-28T08:03:23.027Z,10.20
2022-09-28T08:05:49.886Z,10.20
2022-09-28T08:08:16.867Z,10.30
2022-09-28T08:10:46.953Z,10.30
2022-09-28T08:13:15.230Z,10.30
2022-09-28T08:15:42.779Z,10.40
2022-09-28T08:18:10.159Z,10.40
2022-09-28T08:20:55.443Z,10.40
2022-09-28T08:23:23.323Z,10.40
2022-09-28T08:25:54.175Z,10.50
2022-09-28T08:28:25.170Z,10.50
2022-09-28T08:30:59.641Z,10.50
2022-09-28T08:33:26.616Z,10.50
2022-09-28T08:35:58.203Z,10.50
2022-09-28T08:38:26.904Z,10.60
2022-09-28T08:41:18.308Z,10.60
2022-09-28T08:44:03.345Z,10.60
2022-09-28T08:46:35.884Z,10.60
2022-09-28T08:49:31.160Z,10.60
2022-09-28T08:52:00.632Z,10.60
2022-09-28T08:54:49.067Z,10.60
2022-09-28T08:57:20.740Z,10.60
2022-09-28T08:59:52.649Z,10.70
2022-09-28T09:02:33.496Z,10.70
2022-09-28T09:05:04.216Z,10.70
2022-09-28T09:07:53.785Z,10.70
2022-09-28T09:11:09.891Z,10.70
2022-09-28T09:13:55.426Z,10.70
2022-09-28T09:16:30.555Z,10.70
2022-09-28T09:19:01.678Z,10.70
2022-09-28T09:21:46.824Z,10.80
2022-09-28T09:24:30.122Z,10.80
2022-09-28T09:27:06.842Z,10.80
2022-09-28T09:29:54.956Z,10.90
2022-09-28T09:32:21.726Z,10.90
2022-09-28T09:35:18.555Z,10.90
2022-09-28T09:38:19.128Z,10.90
2022-09-28T09:41:15.483Z,10.90
2022-09-28T09:44:20.110Z,10.90
2022-09-28T09:47:11.341Z,11.10
2022-09-28T09:49:43.112Z,11.00
2022-09-28T09:52:24.753Z,10.70
2022-09-28T09:54:59.938Z,10.60
2022-09-28T09:57:31.543Z,10.50
2022-09-28T10:00:01.894Z,10.50
2022-09-28T10:02:32.559Z,10.40
2022-09-28T10:05:24.477Z,10.40
2022-09-28T10:08:25.477Z,10.60
2022-09-28T10:11:01.801Z,10.50
2022-09-28T10:13:29.263Z,10.60
2022-09-28T10:15:56.345Z,10.60
2022-09-28T10:18:27.047Z,10.60
2022-09-28T10:20:54.037Z,10.60
2022-09-28T10:23:33.928Z,10.50
2022-09-28T10:26:15.147Z,10.50
2022-09-28T10:29:01.268Z,10.50
2022-09-28T10:31:36.914Z,10.60
2022-09-28T10:34:06.241Z,10.60
2022-09-28T10:36:42.746Z,10.60
2022-09-28T10:39:27.741Z,10.70
2022-09-28T10:41:54.968Z,10.60
2022-09-28T10:44:22.899Z,10.40
2022-09-28T10:46:59.310Z,10.40
2022-09-28T10:49:27.266Z,10.20
2022-09-28T10:51:56.245Z,10.30
2022-09-28T10:54:28.665Z,10.30
2022-09-28T10:56:57.128Z,10.40
2022-09-28T10:59:29.685Z,10.30
2022-09-28T11:02:03.811Z,10.40
2022-09-28T11:04:40.113Z,10.30
2022-09-28T11:07:18.606Z,10.40
2022-09-28T11:09:49.683Z,10.40
2022-09-28T11:12:26.296Z,10.40
2022-09-28T11:14:59.436Z,10.40
2022-09-28T11:17:38.629Z,10.40
2022-09-28T11:20:27.379Z,10.40
2022-09-28T11:22:57.966Z,10.50
2022-09-28T11:25:27.949Z,10.50
2022-09-28T11:27:56.426Z,10.60
2022-09-28T11:30:48.517Z,10.60
2022-09-28T11:33:35.603Z,10.70
2022-09-28T11:36:19.125Z,10.60
2022-09-28T11:38:55.627Z,10.60
2022-09-28T11:41:46.207Z,10.50
2022-09-28T11:44:19.211Z,10.60
2022-09-28T11:47:06.666Z,10.50
2022-09-28T11:49:52.395Z,10.50
2022-09-28T11:52:57.936Z,10.60
2022-09-28T11:55:36.068Z,10.80
2022-09-28T11:58:18.079Z,11.00
2022-09-28T12:00:54.424Z,11.00
2022-09-28T12:03:36.151Z,10.90
2022-09-28T12:06:11.205Z,10.80
2022-09-28T12:08:53.757Z,10.60
2022-09-28T12:11:32.442Z,10.60
2022-09-28T12:14:03.903Z,10.60
2022-09-28T12:17:05.060Z,10.50
2022-09-28T12:19:49.832Z,10.60
2022-09-28T12:22:46.200Z,10.60
2022-09-28T12:25:21.295Z,10.60
2022-09-28T12:28:07.140Z,10.50
2022-09-28T12:30:40.477Z,10.40
2022-09-28T12:33:09.279Z,10.30
2022-09-28T12:35:51.390Z,10.50
2022-09-28T12:38:36.527Z,10.50
2022-09-28T12:41:09.483Z,10.50
2022-09-28T12:44:07.345Z,10.50
2022-09-28T12:46:46.057Z,10.50
2022-09-28T12:55:17.229Z,10.40
2022-09-28T12:57:54.250Z,10.30
2022-09-28T13:00:23.558Z,10.30
2022-09-28T13:03:35.024Z,10.40
2022-09-28T13:06:13.060Z,10.40
2022-09-28T13:08:56.646Z,10.40
2022-09-28T13:11:33.296Z,10.30
2022-09-28T13:14:18.757Z,10.30
2022-09-28T13:17:00.743Z,10.40
2022-09-28T13:19:53.215Z,10.30
2022-09-28T13:25:31.163Z,10.30
2022-09-28T13:28:04.025Z,10.30
2022-09-28T13:30:34.607Z,10.20
2022-09-28T13:33:04.297Z,10.20
2022-09-28T13:35:33.304Z,10.20
2022-09-28T13:38:18.279Z,10.20
2022-09-28T13:41:03.974Z,10.10
2022-09-28T13:43:57.490Z,10.10
2022-09-28T13:46:50.897Z,10.10
2022-09-28T13:49:31.275Z,10.10
2022-09-28T13:51:58.230Z,10.00
2022-09-28T13:54:41.673Z,10.00
2022-09-28T13:57:34.051Z,10.00
2022-09-28T14:00:31.248Z,10.00
2022-09-28T14:03:04.174Z,9.90
2022-09-28T14:05:49.069Z,9.90
2022-09-28T14:08:30.326Z,9.80
2022-09-28T14:11:18.045Z,9.70
2022-09-28T14:13:44.914Z,9.90
2022-09-28T14:16:17.866Z,10.00
2022-09-28T14:19:07.246Z,10.10
2022-09-28T14:22:00.006Z,10.00
2022-09-28T14:24:40.779Z,10.00
2022-09-28T14:27:29.158Z,10.00
2022-09-28T14:30:27.596Z,10.00
2022-09-28T14:32:59.643Z,10.00
2022-09-28T14:35:42.558Z,9.90
2022-09-28T14:38:41.526Z,9.90
2022-09-28T14:41:13.633Z,9.90
2022-09-28T14:43:46.584Z,9.90
2022-09-28T14:46:19.126Z,10.00
2022-09-28T14:49:03.164Z,10.00
2022-09-28T14:51:30.204Z,10.00
2022-09-28T14:54:04.418Z,9.90
2022-09-28T14:56:39.064Z,10.00
2022-09-28T14:59:07.346Z,9.90
2022-09-28T15:01:36.102Z,9.80
2022-09-28T15:04:08.716Z,9.80
2022-09-28T15:06:47.255Z,9.80
2022-09-28T15:09:30.033Z,9.80
2022-09-28T15:12:17.975Z,9.70
2022-09-28T15:14:51.274Z,9.70
2022-09-28T15:17:22.282Z,9.70
2022-09-28T15:20:17.264Z,9.70
2022-09-28T15:22:49.210Z,9.60
2022-09-28T15:25:21.909Z,9.50
2022-09-28T15:28:02.337Z,9.50
2022-09-28T15:30:32.708Z,9.60
2022-09-28T15:33:20.156Z,9.60
2022-09-28T15:36:07.334Z,9.70
2022-09-28T15:38:35.389Z,9.70
2022-09-28T15:41:07.681Z,9.70
2022-09-28T15:43:37.149Z,9.80
2022-09-28T15:46:18.177Z,9.60
2022-09-28T15:48:53.439Z,9.70
2022-09-28T15:51:22.072Z,9.70
2022-09-28T15:53:59.588Z,9.60
2022-09-28T15:56:27.448Z,9.60
2022-09-28T15:59:18.806Z,9.70
2022-09-28T16:01:46.316Z,9.60
2022-09-28T16:04:53.053Z,9.50
2022-09-28T16:07:27.615Z,9.60
2022-09-28T16:10:12.813Z,9.60
2022-09-28T16:12:48.521Z,9.60
2022-09-28T16:15:23.345Z,9.60
2022-09-28T16:18:02.899Z,9.70
2022-09-28T16:20:36.357Z,9.60
2022-09-28T16:23:26.982Z,9.60
2022-09-28T16:26:13.115Z,9.50
2022-09-28T16:28:40.731Z,9.40
2022-09-28T16:31:27.237Z,9.30
2022-09-28T16:34:09.573Z,9.30
2022-09-28T16:36:45.419Z,9.40
2022-09-28T16:39:17.407Z,9.50
2022-09-28T16:41:59.644Z,9.50
2022-09-28T16:44:29.954Z,9.30
2022-09-28T16:46:58.469Z,9.20
2022-09-28T16:49:26.415Z,9.20
2022-09-28T16:51:53.466Z,9.40
2022-09-28T16:54:41.348Z,9.40
2022-09-28T16:57:11.901Z,9.40
2022-09-28T16:59:39.235Z,9.40
2022-09-28T17:02:45.029Z,9.30
2022-09-28T17:05:10.161Z,9.50
2022-09-28T17:07:37.082Z,9.20
2022-09-28T17:10:15.403Z,9.20
2022-09-28T17:12:42.266Z,9.40
2022-09-28T17:15:09.312Z,9.40
2022-09-28T17:17:38.179Z,9.20
2022-09-28T17:20:21.424Z,9.20
2022-09-28T17:22:49.161Z,9.30
2022-09-28T17:25:16.027Z,9.20
2022-09-28T17:27:46.332Z,9.10
2022-09-28T17:30:14.612Z,9.20
2022-09-28T17:32:45.017Z,9.20
2022-09-28T17:35:26.269Z,9.10
2022-09-28T17:37:53.430Z,9.20
2022-09-28T17:40:28.324Z,9.20
2022-09-28T17:42:57.633Z,9.30
2022-09-28T17:45:28.132Z,9.40
2022-09-28T17:47:56.185Z,9.30
2022-09-28T17:50:35.144Z,9.30
2022-09-28T17:53:08.493Z,9.10
2022-09-28T17:55:37.089Z,9.00
2022-09-28T17:58:19.257Z,8.80
2022-09-28T18:00:47.835Z,9.10
2022-09-28T18:03:20.165Z,9.10
2022-09-28T18:05:49.741Z,9.10
2022-09-28T18:08:21.187Z,9.00
2022-09-28T18:10:48.040Z,9.00
2022-09-28T18:13:15.022Z,9.10
2022-09-28T18:15:42.723Z,9.10
2022-09-28T18:18:09.869Z,9.20
2022-09-28T18:20:37.513Z,9.20
2022-09-28T18:23:04.547Z,9.20
2022-09-28T18:25:31.503Z,9.00
2022-09-28T18:28:00.002Z,9.10
2022-09-28T18:30:27.821Z,9.20
2022-09-28T18:32:54.691Z,9.20
2022-09-28T18:35:23.184Z,9.10
2022-09-28T18:37:50.972Z,9.20
2022-09-28T18:40:18.021Z,9.20
2022-09-28T18:42:44.948Z,9.20
2022-09-28T18:45:12.113Z,9.10
2022-09-28T18:47:39.947Z,9.10
2022-09-28T18:50:07.451Z,9.10
2022-09-28T18:52:38.955Z,9.10
2022-09-28T18:55:07.613Z,9.10
2022-09-28T18:57:35.108Z,9.10
2022-09-28T19:00:05.216Z,9.10
2022-09-28T19:02:32.383Z,9.00
2022-09-28T19:04:59.334Z,9.00
2022-09-28T19:07:26.514Z,9.10
2022-09-28T19:09:55.018Z,9.00
2022-09-28T19:12:21.827Z,9.00
2022-09-28T19:14:48.665Z,9.00
2022-09-28T19:17:15.537Z,8.90
2022-09-28T19:19:42.773Z,8.90
2022-09-28T19:22:09.705Z,8.80
2022-09-28T19:24:36.538Z,8.80
2022-09-28T19:27:03.441Z,8.80
2022-09-28T19:29:30.286Z,8.80
2022-09-28T19:31:58.000Z,8.80
2022-09-28T19:34:27.043Z,8.80
2022-09-28T19:36:53.913Z,8.80
2022-09-28T19:39:21.973Z,8.80
2022-09-28T19:41:51.553Z,8.90
2022-09-28T19:44:25.355Z,8.80
2022-09-28T19:46:55.284Z,8.90
2022-09-28T19:49:26.192Z,8.90
2022-09-28T19:52:14.410Z,8.90
2022-09-28T19:54:59.880Z,8.90
2022-09-28T19:57:29.713Z,8.90
2022-09-28T20:00:01.824Z,9.00
2022-09-28T20:02:29.632Z,8.90
2022-09-28T20:04:56.576Z,8.90
2022-09-28T20:07:23.387Z,9.10
2022-09-28T20:09:50.606Z,9.10
2022-09-28T20:12:17.364Z,9.00
2022-09-28T20:14:44.218Z,9.10
2022-09-28T20:17:11.055Z,9.10
2022-09-28T20:19:38.247Z,9.10
2022-09-28T20:22:05.108Z,9.10
2022-09-28T20:24:32.551Z,9.00
2022-09-28T20:26:59.446Z,9.00
2022-09-28T20:29:26.744Z,9.00
2022-09-28T20:31:53.899Z,9.00
2022-09-28T20:34:20.751Z,8.90
2022-09-28T20:36:48.220Z,9.00
2022-09-28T20:39:15.218Z,8.90
2022-09-28T20:41:42.350Z,9.00
2022-09-28T20:44:09.912Z,9.10
2022-09-28T20:46:37.413Z,9.10
2022-09-28T20:49:05.272Z,9.10
2022-09-28T20:51:32.595Z,9.10
2022-09-28T20:53:59.902Z,9.00
2022-09-28T20:56:27.778Z,9.00
2022-09-28T20:58:55.455Z,9.10
2022-09-28T21:01:27.430Z,9.00
2022-09-28T21:03:56.903Z,9.00
2022-09-28T21:06:26.360Z,9.10
2022-09-28T21:08:53.589Z,9.10
2022-09-28T21:11:22.553Z,9.00
2022-09-28T21:13:54.153Z,9.10
2022-09-28T21:16:21.261Z,9.10
2022-09-28T21:18:48.478Z,9.00
2022-09-28T21:21:17.175Z,9.10
2022-09-28T21:23:45.001Z,9.00
2022-09-28T21:26:24.524Z,9.00
2022-09-28T21:29:03.089Z,9.00
2022-09-28T21:31:37.546Z,9.10
2022-09-28T21:34:04.844Z,9.00
2022-09-28T21:36:32.273Z,9.00
2022-09-28T21:38:59.200Z,9.10
2022-09-28T21:41:26.155Z,9.10
2022-09-28T21:43:53.133Z,9.10
2022-09-28T21:46:20.230Z,9.00
2022-09-28T21:48:52.386Z,9.10
2022-09-28T21:51:19.629Z,9.10
2022-09-28T21:53:48.483Z,9.00
2022-09-28T21:56:15.339Z,9.10
2022-09-28T21:58:42.224Z,9.20
2022-09-28T22:01:17.986Z,9.20
2022-09-28T22:03:50.572Z,9.10
2022-09-28T22:06:19.271Z,9.20
2022-09-28T22:08:47.186Z,9.20
2022-09-28T22:11:16.885Z,9.20
2022-09-28T22:13:46.170Z,9.10
2022-09-28T22:16:14.648Z,9.10
2022-09-28T22:18:42.552Z,9.00
2022-09-28T22:21:13.062Z,9.10
2022-09-28T22:23:40.714Z,9.10
2022-09-28T22:26:40.438Z,9.10
2022-09-28T22:29:09.265Z,9.10
2022-09-28T22:31:38.485Z,9.00
2022-09-28T22:34:06.403Z,9.00
2022-09-28T22:36:33.564Z,9.00
2022-09-28T22:39:00.637Z,9.10
2022-09-28T22:41:27.551Z,9.10
2022-09-28T22:43:54.639Z,9.00
2022-09-28T22:46:24.190Z,9.00
2022-09-28T22:48:53.954Z,9.10
2022-09-28T22:51:21.489Z,9.10
2022-09-28T22:53:48.441Z,9.10
2022-09-28T22:56:18.666Z,9.10
2022-09-28T22:58:46.574Z,9.20
2022-09-28T23:01:26.083Z,9.20
2022-09-28T23:03:54.340Z,9.10
2022-09-28T23:06:23.336Z,9.10
2022-09-28T23:08:51.431Z,9.00
2022-09-28T23:11:19.030Z,9.00
2022-09-28T23:13:53.278Z,9.00
2022-09-28T23:16:20.293Z,9.00
2022-09-28T23:18:49.129Z,9.10
2022-09-28T23:21:19.400Z,9.10
2022-09-28T23:23:50.588Z,9.00
2022-09-28T23:26:26.753Z,9.00
2022-09-28T23:28:54.526Z,9.00
2022-09-28T23:31:29.925Z,9.10
2022-09-28T23:33:58.889Z,9.00
2022-09-28T23:36:25.992Z,9.00
2022-09-28T23:38:53.095Z,9.00
2022-09-28T23:41:19.950Z,8.90
2022-09-28T23:43:46.840Z,9.00
2022-09-28T23:46:17.232Z,9.00
2022-09-28T23:48:47.269Z,9.10
2022-09-28T23:51:14.015Z,9.00
2022-09-28T23:53:40.837Z,8.90
2022-09-28T23:56:07.732Z,9.00
2022-09-28T23:58:34.810Z,8.90
